createdAt,value
2022-11-13T00:02:27.657Z,5.25
2022-11-13T00:05:33.698Z,4.40
2022-11-13T00:08:40.054Z,4.47
2022-11-13T00:11:45.651Z,4.75
2022-11-13T00:14:51.192Z,5.62
2022-11-13T00:18:02.558Z,4.97
2022-11-13T00:21:10.158Z,4.25
2022-11-13T00:24:15.414Z,4.12
2022-11-13T00:27:20.958Z,3.40
2022-11-13T00:30:26.503Z,4.00
2022-11-13T00:37:00.241Z,5.25
2022-11-13T00:40:07.105Z,5.75
2022-11-13T00:43:12.864Z,5.60
2022-11-13T00:46:18.148Z,5.12
2022-11-13T00:49:25.054Z,4.53
2022-11-13T00:52:30.571Z,5.22
2022-11-13T00:55:36.576Z,6.30
2022-11-13T00:58:42.208Z,5.53
2022-11-13T01:01:47.732Z,5.22
2022-11-13T01:04:54.616Z,6.00
2022-11-13T01:08:00.138Z,6.60
2022-11-13T01:11:10.952Z,5.53
2022-11-13T01:14:18.014Z,6.32
2022-11-13T01:17:23.563Z,4.75
2022-11-13T01:20:30.582Z,5.55
2022-11-13T01:23:36.591Z,5.47
2022-11-13T01:26:43.142Z,6.55
2022-11-13T01:29:48.443Z,6.78
2022-11-13T01:32:54.016Z,6.75
2022-11-13T01:36:06.271Z,5.50
2022-11-13T01:39:12.542Z,5.28
2022-11-13T01:42:17.917Z,5.20
2022-11-13T01:46:06.075Z,4.90
2022-11-13T01:49:26.044Z,6.07
2022-11-13T01:52:37.626Z,6.45
2022-11-13T01:55:43.265Z,5.97
2022-11-13T01:58:55.408Z,7.10
2022-11-13T02:02:01.193Z,6.28
2022-11-13T02:05:09.238Z,7.60
2022-11-13T02:08:16.236Z,6.18
2022-11-13T02:11:22.364Z,6.68
2022-11-13T02:14:30.740Z,5.68
2022-11-13T02:17:41.863Z,6.70
2022-11-13T02:20:58.909Z,6.65
2022-11-13T02:24:22.085Z,6.25
2022-11-13T02:27:32.280Z,5.28
2022-11-13T02:30:38.532Z,4.30
2022-11-13T02:33:44.079Z,4.40
2022-11-13T02:36:49.405Z,3.90
2022-11-13T02:39:56.130Z,4.78
2022-11-13T02:43:01.520Z,5.07
2022-11-13T02:46:06.989Z,4.72
2022-11-13T02:49:12.825Z,3.97
2022-11-13T02:52:18.386Z,4.12
2022-11-13T02:55:25.440Z,4.47
2022-11-13T02:58:31.248Z,4.07
2022-11-13T03:01:36.751Z,4.10
2022-11-13T03:05:10.827Z,5.05
2022-11-13T03:08:08.369Z,4.00
2022-11-13T03:11:15.294Z,4.28
2022-11-13T03:14:21.655Z,4.57
2022-11-13T03:17:27.115Z,4.55
2022-11-13T03:20:32.490Z,4.40
2022-11-13T03:23:37.898Z,4.40
2022-11-13T03:26:45.095Z,4.60
2022-11-13T03:29:50.928Z,4.78
2022-11-13T03:32:57.024Z,5.75
2022-11-13T03:36:02.734Z,4.80
2022-11-13T03:39:08.647Z,4.65
2022-11-13T03:42:15.850Z,5.03
2022-11-13T03:45:21.506Z,4.90
2022-11-13T03:48:27.626Z,4.87
2022-11-13T03:51:33.599Z,5.18
2022-11-13T03:54:38.905Z,4.97
2022-11-13T03:57:45.640Z,5.12
2022-11-13T04:00:52.423Z,5.05
2022-11-13T04:03:58.019Z,4.78
2022-11-13T04:07:03.646Z,5.40
2022-11-13T04:10:09.914Z,5.20
2022-11-13T04:13:17.281Z,4.78
2022-11-13T04:16:23.281Z,5.12
2022-11-13T04:19:29.252Z,4.93
2022-11-13T04:22:34.670Z,5.10
2022-11-13T04:25:40.071Z,4.87
2022-11-13T04:28:46.821Z,4.90
2022-11-13T04:31:52.266Z,5.47
2022-11-13T04:34:57.858Z,4.60
2022-11-13T04:38:03.384Z,5.25
2022-11-13T04:41:26.741Z,6.05
2022-11-13T04:44:34.183Z,5.25
2022-11-13T04:47:39.879Z,5.68
2022-11-13T04:50:45.461Z,5.05
2022-11-13T04:53:51.062Z,6.05
2022-11-13T04:56:56.808Z,6.03
2022-11-13T05:00:05.053Z,4.57
2022-11-13T05:03:10.630Z,5.37
2022-11-13T05:06:18.307Z,5.53
2022-11-13T05:09:23.731Z,5.40
2022-11-13T05:12:29.167Z,4.82
2022-11-13T05:15:36.058Z,5.30
2022-11-13T05:18:42.636Z,5.60
2022-11-13T05:21:48.535Z,5.20
2022-11-13T05:24:54.183Z,5.03
2022-11-13T05:28:00.098Z,5.00
2022-11-13T05:31:08.908Z,6.12
2022-11-13T05:34:15.000Z,5.05
2022-11-13T05:37:20.641Z,4.82
2022-11-13T05:40:26.335Z,5.72
2022-11-13T05:43:31.978Z,5.57
2022-11-13T05:46:38.916Z,5.97
2022-11-13T05:49:44.956Z,6.18
2022-11-13T05:52:50.537Z,5.72
2022-11-13T05:55:56.293Z,5.62
2022-11-13T05:59:02.800Z,4.10
2022-11-13T06:02:09.931Z,5.85
2022-11-13T06:05:16.295Z,5.60
2022-11-13T06:08:22.504Z,4.22
2022-11-13T06:11:30.298Z,4.45
2022-11-13T06:14:35.989Z,5.35
2022-11-13T06:17:47.114Z,4.55
2022-11-13T06:20:52.593Z,5.80
2022-11-13T06:23:59.065Z,5.03
2022-11-13T06:27:05.163Z,4.40
2022-11-13T06:30:11.924Z,4.87
2022-11-13T06:33:19.012Z,4.75
2022-11-13T06:36:26.272Z,4.70
2022-11-13T06:39:31.806Z,4.55
2022-11-13T06:42:37.251Z,5.30
2022-11-13T06:45:42.775Z,4.75
2022-11-13T06:48:49.754Z,5.43
2022-11-13T06:51:55.533Z,5.62
2022-11-13T06:55:01.577Z,4.80
2022-11-13T06:58:07.419Z,5.03
2022-11-13T07:01:17.300Z,4.28
2022-11-13T07:04:26.593Z,4.22
2022-11-13T07:07:31.933Z,4.47
2022-11-13T07:10:37.866Z,3.83
2022-11-13T07:13:44.437Z,3.90
2022-11-13T07:17:08.530Z,4.62
2022-11-13T07:20:34.588Z,4.87
2022-11-13T07:23:56.181Z,4.07
2022-11-13T07:27:01.871Z,4.25
2022-11-13T07:30:08.396Z,4.28
2022-11-13T07:33:14.231Z,4.75
2022-11-13T07:36:21.154Z,3.97
2022-11-13T07:39:26.695Z,4.60
2022-11-13T07:42:32.093Z,3.87
2022-11-13T07:45:37.674Z,4.68
2022-11-13T07:48:43.259Z,4.22
2022-11-13T07:51:49.920Z,4.12
2022-11-13T07:54:55.612Z,4.57
2022-11-13T07:58:02.088Z,4.32
2022-11-13T08:01:08.090Z,4.00
2022-11-13T08:04:13.758Z,4.62
2022-11-13T08:07:20.769Z,4.65
2022-11-13T08:10:26.787Z,4.30
2022-11-13T08:13:33.329Z,4.15
2022-11-13T08:16:39.419Z,3.80
2022-11-13T08:19:48.436Z,3.25
2022-11-13T08:22:58.598Z,4.15
2022-11-13T08:26:08.375Z,3.97
2022-11-13T08:29:17.923Z,3.92
2022-11-13T08:32:23.909Z,3.78
2022-11-13T08:35:32.434Z,4.53
2022-11-13T08:38:39.641Z,4.22
2022-11-13T08:41:45.380Z,4.65
2022-11-13T08:44:50.945Z,4.70
2022-11-13T08:48:09.798Z,5.12
2022-11-13T08:51:17.019Z,6.03
2022-11-13T08:54:41.542Z,5.97
2022-11-13T08:57:46.811Z,5.22
2022-11-13T09:00:52.198Z,6.12
2022-11-13T09:04:04.940Z,5.78
2022-11-13T09:07:13.375Z,5.40
2022-11-13T09:10:25.242Z,6.53
2022-11-13T09:13:33.123Z,6.40
2022-11-13T09:16:38.751Z,6.40
2022-11-13T09:19:54.348Z,6.65
2022-11-13T09:23:29.827Z,6.47
2022-11-13T09:26:47.158Z,6.78
2022-11-13T09:29:56.559Z,7.32
2022-11-13T09:33:02.717Z,6.68
2022-11-13T09:36:12.744Z,6.20
2022-11-13T09:39:18.489Z,6.78
2022-11-13T09:42:29.392Z,6.82
2022-11-13T09:45:35.202Z,6.70
2022-11-13T09:48:45.240Z,7.25
2022-11-13T09:51:54.101Z,7.45
2022-11-13T09:55:00.819Z,8.13
2022-11-13T09:58:15.009Z,8.52
2022-11-13T10:01:29.640Z,8.25
2022-11-13T10:04:57.781Z,8.10
2022-11-13T10:08:08.864Z,8.70
2022-11-13T10:11:19.691Z,8.25
2022-11-13T10:14:31.041Z,8.32
2022-11-13T10:17:40.524Z,8.63
2022-11-13T10:20:50.434Z,8.07
2022-11-13T10:23:57.936Z,8.25
2022-11-13T10:27:03.513Z,7.95
2022-11-13T10:30:18.468Z,8.48
2022-11-13T10:33:25.486Z,7.40
2022-11-13T10:36:39.029Z,8.55
2022-11-13T10:39:44.920Z,8.82
2022-11-13T10:42:50.726Z,9.75
2022-11-13T10:45:59.880Z,9.30
2022-11-13T10:49:14.723Z,9.60
2022-11-13T10:52:22.583Z,9.57
2022-11-13T10:55:38.972Z,9.30
2022-11-13T10:58:44.572Z,10.23
2022-11-13T11:01:51.414Z,10.55
2022-11-13T11:05:05.624Z,10.25
2022-11-13T11:08:11.993Z,10.25
2022-11-13T11:11:37.174Z,10.68
2022-11-13T11:14:48.849Z,10.48
2022-11-13T11:18:01.299Z,10.38
2022-11-13T11:21:10.854Z,9.90
2022-11-13T11:24:22.162Z,10.85
2022-11-13T11:27:35.570Z,9.65
2022-11-13T11:30:48.583Z,10.55
2022-11-13T11:34:01.797Z,9.20
2022-11-13T11:37:14.637Z,10.27
2022-11-13T11:40:29.255Z,8.55
2022-11-13T11:43:43.608Z,8.88
2022-11-13T11:46:49.683Z,9.02
2022-11-13T11:49:56.773Z,8.13
2022-11-13T11:53:07.588Z,9.70
2022-11-13T11:56:26.323Z,8.50
2022-11-13T12:00:07.718Z,8.98
2022-11-13T12:04:07.771Z,8.48
2022-11-13T12:07:31.531Z,8.73
2022-11-13T12:10:45.901Z,8.73
2022-11-13T12:14:00.362Z,10.18
2022-11-13T12:17:21.523Z,9.82
2022-11-13T12:20:38.134Z,9.45
2022-11-13T12:24:13.114Z,9.27
2022-11-13T12:27:27.610Z,9.15
2022-11-13T12:30:43.839Z,9.38
2022-11-13T12:34:01.250Z,10.00
2022-11-13T12:37:13.829Z,8.93
2022-11-13T12:40:29.731Z,10.95
2022-11-13T12:43:55.587Z,10.05
2022-11-13T12:47:08.755Z,11.07
2022-11-13T12:50:31.700Z,10.90
2022-11-13T12:53:50.764Z,10.38
2022-11-13T12:57:09.137Z,10.48
2022-11-13T13:00:27.054Z,9.30
2022-11-13T13:07:08.194Z,9.35
2022-11-13T13:10:22.721Z,11.55
2022-11-13T13:13:38.363Z,10.00
2022-11-13T13:16:44.068Z,10.80
2022-11-13T13:19:59.835Z,11.50
2022-11-13T13:23:08.597Z,9.98
2022-11-13T13:26:18.506Z,11.25
2022-11-13T13:29:26.613Z,11.52
2022-11-13T13:32:40.535Z,11.07
2022-11-13T13:35:52.898Z,10.77
2022-11-13T13:39:04.268Z,11.93
2022-11-13T13:42:24.742Z,9.73
2022-11-13T13:45:42.957Z,11.10
2022-11-13T13:48:50.744Z,10.75
2022-11-13T13:51:58.127Z,9.75
2022-11-13T13:55:05.654Z,10.15
2022-11-13T13:58:16.266Z,10.02
2022-11-13T14:01:31.146Z,9.88
2022-11-13T14:04:45.909Z,9.90
2022-11-13T14:07:51.330Z,10.40
2022-11-13T14:10:56.762Z,10.25
2022-11-13T14:14:09.051Z,9.60
2022-11-13T14:17:25.226Z,10.30
2022-11-13T14:20:31.224Z,10.25
2022-11-13T14:23:38.877Z,10.75
2022-11-13T14:26:45.193Z,11.05
2022-11-13T14:29:53.222Z,10.95
2022-11-13T14:33:03.297Z,12.85
2022-11-13T14:36:09.550Z,14.73
2022-11-13T14:39:23.271Z,17.70
2022-11-13T14:42:36.796Z,20.00
2022-11-13T14:45:53.705Z,23.50
2022-11-13T14:49:00.748Z,17.92
2022-11-13T14:52:07.136Z,17.27
2022-11-13T14:55:24.928Z,15.95
2022-11-13T14:58:33.255Z,10.85
2022-11-13T15:01:39.233Z,14.55
2022-11-13T15:04:46.166Z,11.80
2022-11-13T15:07:52.989Z,14.50
2022-11-13T15:10:58.613Z,13.77
2022-11-13T15:14:04.724Z,11.63
2022-11-13T15:17:16.860Z,11.05
2022-11-13T15:20:27.068Z,10.02
2022-11-13T15:23:32.993Z,9.75
2022-11-13T15:26:39.071Z,10.43
2022-11-13T15:29:45.488Z,10.05
2022-11-13T15:32:53.984Z,9.65
2022-11-13T15:36:01.694Z,10.90
2022-11-13T15:39:12.691Z,10.90
2022-11-13T15:42:29.793Z,10.73
2022-11-13T15:45:39.882Z,10.48
2022-11-13T15:48:49.704Z,10.13
2022-11-13T15:51:56.864Z,11.65
2022-11-13T15:55:04.504Z,12.10
2022-11-13T15:58:16.057Z,11.88
2022-11-13T16:01:22.397Z,11.18
2022-11-13T16:04:44.090Z,11.27
2022-11-13T16:07:55.269Z,11.20
2022-11-13T16:11:00.846Z,11.82
2022-11-13T16:14:06.880Z,11.38
2022-11-13T16:17:16.630Z,11.18
2022-11-13T16:20:22.256Z,11.15
2022-11-13T16:23:30.014Z,10.70
2022-11-13T16:26:36.286Z,10.45
2022-11-13T16:29:42.080Z,10.68
2022-11-13T16:32:47.867Z,10.82
2022-11-13T16:35:55.043Z,11.32
2022-11-13T16:39:02.279Z,11.38
2022-11-13T16:42:08.215Z,10.55
2022-11-13T16:45:13.567Z,9.82
2022-11-13T16:48:18.851Z,10.90
2022-11-13T16:51:24.521Z,10.32
2022-11-13T16:54:31.502Z,11.95
2022-11-13T16:57:37.562Z,10.98
2022-11-13T17:00:43.572Z,12.27
2022-11-13T17:03:50.332Z,15.13
2022-11-13T17:06:57.856Z,11.77
2022-11-13T17:13:31.343Z,12.80
2022-11-13T17:16:36.742Z,13.13
2022-11-13T17:19:44.125Z,12.13
2022-11-13T17:22:49.693Z,13.27
2022-11-13T17:25:56.806Z,11.82
2022-11-13T17:29:05.196Z,12.37
2022-11-13T17:32:10.841Z,11.20
2022-11-13T17:35:16.761Z,10.50
2022-11-13T17:38:22.496Z,11.50
2022-11-13T17:41:29.278Z,11.10
2022-11-13T17:44:34.188Z,9.60
2022-11-13T17:47:39.405Z,19.92
2022-11-13T17:50:44.596Z,30.83
2022-11-13T17:53:50.186Z,16.95
2022-11-13T17:56:57.156Z,11.12
2022-11-13T18:00:03.258Z,11.60
2022-11-13T18:03:08.761Z,9.77
2022-11-13T18:06:19.549Z,8.70
2022-11-13T18:09:25.804Z,8.40
2022-11-13T18:12:32.847Z,9.77
2022-11-13T18:15:39.344Z,9.77
2022-11-13T18:18:45.448Z,10.23
2022-11-13T18:21:51.217Z,8.30
2022-11-13T18:24:56.594Z,8.50
2022-11-13T18:28:03.056Z,9.30
2022-11-13T18:31:09.215Z,9.65
2022-11-13T18:34:17.690Z,9.10
2022-11-13T18:37:23.679Z,8.13
2022-11-13T18:40:29.156Z,8.70
2022-11-13T18:43:36.984Z,7.97
2022-11-13T18:46:42.591Z,9.48
2022-11-13T18:49:48.330Z,8.43
2022-11-13T18:52:56.361Z,8.48
2022-11-13T18:56:02.580Z,7.75
2022-11-13T18:59:11.047Z,8.10
2022-11-13T19:02:16.889Z,7.75
2022-11-13T19:05:22.485Z,8.18
2022-11-13T19:08:28.208Z,7.60
2022-11-13T19:11:34.503Z,8.00
2022-11-13T19:14:41.254Z,8.50
2022-11-13T19:17:50.355Z,7.18
2022-11-13T19:20:58.275Z,8.25
2022-11-13T19:24:04.114Z,7.93
2022-11-13T19:27:09.752Z,8.07
2022-11-13T19:30:16.796Z,7.82
2022-11-13T19:33:22.779Z,8.60
2022-11-13T19:36:29.622Z,9.00
2022-11-13T19:39:35.651Z,8.38
2022-11-13T19:42:42.177Z,9.52
2022-11-13T19:45:49.234Z,8.88
2022-11-13T19:48:55.032Z,8.90
2022-11-13T19:52:00.843Z,8.48
2022-11-13T19:55:06.995Z,10.38
2022-11-13T19:58:12.950Z,9.13
2022-11-13T20:01:22.757Z,9.02
2022-11-13T20:04:28.916Z,9.10
2022-11-13T20:07:34.677Z,9.32
2022-11-13T20:10:40.365Z,9.50
2022-11-13T20:13:46.354Z,10.10
2022-11-13T20:16:53.163Z,9.18
2022-11-13T20:19:58.761Z,8.60
2022-11-13T20:23:03.957Z,8.63
2022-11-13T20:26:13.602Z,10.60
2022-11-13T20:29:19.190Z,10.02
2022-11-13T20:32:27.592Z,9.80
2022-11-13T20:35:33.636Z,9.02
2022-11-13T20:38:39.823Z,9.95
2022-11-13T20:41:45.294Z,9.52
2022-11-13T20:44:50.970Z,10.13
2022-11-13T20:47:58.096Z,9.93
2022-11-13T20:51:08.304Z,9.75
2022-11-13T20:54:14.004Z,9.82
2022-11-13T20:57:21.350Z,8.95
2022-11-13T21:00:27.102Z,9.35
2022-11-13T21:03:39.913Z,9.23
2022-11-13T21:06:47.333Z,9.60
2022-11-13T21:09:52.896Z,9.68
2022-11-13T21:12:58.853Z,10.85
2022-11-13T21:16:06.808Z,11.07
2022-11-13T21:19:14.290Z,10.32
2022-11-13T21:22:20.060Z,10.73
2022-11-13T21:25:25.398Z,9.80
2022-11-13T21:28:33.682Z,10.38
2022-11-13T21:31:39.304Z,10.45
2022-11-13T21:34:46.552Z,11.25
2022-11-13T21:37:51.981Z,10.80
2022-11-13T21:41:14.618Z,11.75
2022-11-13T21:44:20.457Z,9.82
2022-11-13T21:47:26.216Z,12.05
2022-11-13T21:50:33.264Z,11.10
2022-11-13T21:53:39.745Z,11.55
2022-11-13T21:56:45.565Z,11.02
2022-11-13T21:59:51.594Z,11.43
2022-11-13T22:02:57.213Z,10.93
2022-11-13T22:06:19.536Z,11.38
2022-11-13T22:09:26.925Z,10.00
2022-11-13T22:12:32.732Z,10.98
2022-11-13T22:15:38.377Z,10.35
2022-11-13T22:18:43.907Z,11.02
2022-11-13T22:21:52.611Z,9.65
2022-11-13T22:24:58.061Z,11.52
2022-11-13T22:28:03.476Z,11.98
2022-11-13T22:31:12.660Z,9.90
2022-11-13T22:34:18.330Z,8.55
2022-11-13T22:37:25.169Z,7.62
2022-11-13T22:40:30.817Z,8.20
2022-11-13T22:43:40.209Z,8.38
2022-11-13T22:46:45.986Z,9.13
2022-11-13T22:49:51.697Z,8.73
2022-11-13T22:52:58.576Z,7.75
2022-11-13T22:56:05.937Z,7.72
2022-11-13T22:59:13.231Z,8.75
2022-11-13T23:02:19.055Z,7.15
2022-11-13T23:05:24.606Z,6.47
2022-11-13T23:08:33.261Z,7.47
2022-11-13T23:11:42.388Z,7.07
2022-11-13T23:14:47.906Z,6.93
2022-11-13T23:17:53.463Z,6.28
2022-11-13T23:20:59.044Z,5.97
2022-11-13T23:24:06.750Z,7.05
2022-11-13T23:27:13.111Z,7.55
2022-11-13T23:30:18.869Z,6.75
2022-11-13T23:33:24.998Z,7.00
2022-11-13T23:36:31.552Z,5.87
2022-11-13T23:39:38.657Z,5.75
2022-11-13T23:42:55.342Z,6.72
2022-11-13T23:46:01.227Z,5.72
2022-11-13T23:49:06.968Z,7.00
2022-11-13T23:52:12.566Z,6.25
2022-11-13T23:55:21.239Z,6.22
2022-11-13T23:58:27.219Z,7.90
